createdAt,value
2023-08-05T00:02:01.912Z,97926.91
2023-08-05T00:04:29.022Z,97922.91
2023-08-05T00:06:56.142Z,97920.53
2023-08-05T00:09:23.298Z,97914.13
2023-08-05T00:11:50.409Z,97917.31
2023-08-05T00:14:17.534Z,97914.53
2023-08-05T00:16:44.779Z,97911.44
2023-08-05T00:19:11.882Z,97912.88
2023-08-05T00:21:39.015Z,97906.63
2023-08-05T00:24:06.133Z,97902.09
2023-08-05T00:26:33.353Z,97896.63
2023-08-05T00:29:00.537Z,97898.31
2023-08-05T00:31:27.701Z,97898.50
2023-08-05T00:33:55.122Z,97895.91
2023-08-05T00:36:22.310Z,97899.22
2023-08-05T00:38:49.509Z,97897.28
2023-08-05T00:41:16.588Z,97896.72
2023-08-05T00:43:43.728Z,97895.41
2023-08-05T00:46:11.041Z,97886.38
2023-08-05T00:48:38.249Z,97877.53
2023-08-05T00:51:08.863Z,97877.88
2023-08-05T00:53:37.290Z,97882.81
2023-08-05T00:56:04.506Z,97878.03
2023-08-05T00:58:34.392Z,97887.78
2023-08-05T01:01:01.588Z,97888.66
2023-08-05T01:03:28.749Z,97883.47
2023-08-05T01:05:56.231Z,97877.22
2023-08-05T01:08:24.080Z,97875.34
2023-08-05T01:10:51.333Z,97868.50
2023-08-05T01:13:18.528Z,97862.84
2023-08-05T01:15:45.742Z,97865.75
2023-08-05T01:18:15.152Z,97870.13
2023-08-05T01:20:47.749Z,97857.81
2023-08-05T01:23:36.907Z,97869.59
2023-08-05T01:26:05.831Z,97871.44
2023-08-05T01:28:33.913Z,97868.34
2023-08-05T01:31:01.847Z,97887.53
2023-08-05T01:33:29.719Z,97887.22
2023-08-05T01:35:56.897Z,97892.41
2023-08-05T01:38:24.085Z,97889.09
2023-08-05T01:40:51.200Z,97888.00
2023-08-05T01:43:18.337Z,97879.97
2023-08-05T01:45:45.439Z,97881.81
2023-08-05T01:48:12.598Z,97875.78
2023-08-05T01:50:39.878Z,97874.91
2023-08-05T01:53:06.975Z,97874.75
2023-08-05T01:55:34.174Z,97869.22
2023-08-05T01:58:01.276Z,97873.03
2023-08-05T02:00:28.396Z,97864.94
2023-08-05T02:02:55.777Z,97868.81
2023-08-05T02:05:23.736Z,97869.78
2023-08-05T02:07:51.083Z,97881.56
2023-08-05T02:10:18.286Z,97879.53
2023-08-05T02:12:45.368Z,97875.88
2023-08-05T02:15:12.689Z,97869.94
2023-08-05T02:17:39.831Z,97864.59
2023-08-05T02:20:08.941Z,97869.00
2023-08-05T02:22:36.099Z,97869.16
2023-08-05T02:25:03.244Z,97862.31
2023-08-05T02:27:30.372Z,97866.38
2023-08-05T02:29:57.631Z,97864.94
2023-08-05T02:32:24.782Z,97857.44
2023-08-05T02:34:51.899Z,97859.47
2023-08-05T02:37:19.064Z,97859.47
2023-08-05T02:39:46.162Z,97853.94
2023-08-05T02:42:13.257Z,97847.28
2023-08-05T02:44:40.420Z,97846.16
2023-08-05T02:47:07.602Z,97835.28
2023-08-05T02:49:34.812Z,97836.97
2023-08-05T02:52:01.971Z,97843.63
2023-08-05T02:54:29.186Z,97841.44
2023-08-05T02:56:56.278Z,97838.91
2023-08-05T02:59:23.449Z,97843.13
2023-08-05T03:01:50.605Z,97834.53
2023-08-05T03:04:17.782Z,97852.72
2023-08-05T03:06:45.036Z,97845.16
2023-08-05T03:09:12.203Z,97853.34
2023-08-05T03:11:39.383Z,97860.41
2023-08-05T03:14:06.534Z,97861.88
2023-08-05T03:16:33.650Z,97864.06
2023-08-05T03:19:00.819Z,97867.38
2023-08-05T03:21:27.953Z,97868.00
2023-08-05T03:23:55.127Z,97869.19
2023-08-05T03:26:22.307Z,97870.13
2023-08-05T03:28:49.390Z,97864.78
2023-08-05T03:31:16.566Z,97875.78
2023-08-05T03:33:43.878Z,97871.50
2023-08-05T03:36:11.076Z,97863.00
2023-08-05T03:38:38.233Z,97880.31
2023-08-05T03:41:05.794Z,97877.84
2023-08-05T03:43:33.751Z,97881.41
2023-08-05T03:46:00.922Z,97891.19
2023-08-05T03:48:28.108Z,97900.75
2023-08-05T03:50:55.229Z,97904.13
2023-08-05T03:53:23.476Z,97902.47
2023-08-05T03:55:50.624Z,97894.03
2023-08-05T03:58:20.738Z,97896.41
2023-08-05T04:00:48.145Z,97881.50
2023-08-05T04:03:15.952Z,97879.94
2023-08-05T04:05:43.131Z,97882.72
2023-08-05T04:08:10.225Z,97878.09
2023-08-05T04:10:39.610Z,97881.19
2023-08-05T04:13:07.255Z,97880.06
2023-08-05T04:15:36.339Z,97875.44
2023-08-05T04:18:05.788Z,97879.81
2023-08-05T04:20:35.523Z,97887.94
2023-08-05T04:23:02.950Z,97891.28
2023-08-05T04:25:32.379Z,97897.53
2023-08-05T04:27:59.692Z,97902.50
2023-08-05T04:30:26.912Z,97911.84
2023-08-05T04:32:54.091Z,97908.13
2023-08-05T04:35:21.238Z,97911.59
2023-08-05T04:37:48.400Z,97913.25
2023-08-05T04:40:15.719Z,97922.44
2023-08-05T04:42:43.005Z,97922.59
2023-08-05T04:45:10.746Z,97920.19
2023-08-05T04:47:38.040Z,97925.13
2023-08-05T04:50:05.545Z,97922.38
2023-08-05T04:52:32.848Z,97920.50
2023-08-05T04:55:08.336Z,97909.78
2023-08-05T04:57:36.275Z,97907.34
2023-08-05T05:00:03.634Z,97918.75
2023-08-05T05:02:30.833Z,97913.53
2023-08-05T05:04:58.821Z,97905.41
2023-08-05T05:07:25.943Z,97900.22
2023-08-05T05:09:53.068Z,97889.66
2023-08-05T05:12:20.197Z,97881.38
2023-08-05T05:14:47.900Z,97891.84
2023-08-05T05:17:18.902Z,97891.44
2023-08-05T05:19:46.257Z,97890.31
2023-08-05T05:22:18.598Z,97894.69
2023-08-05T05:24:46.864Z,97895.84
2023-08-05T05:27:15.849Z,97893.06
2023-08-05T05:29:42.999Z,97903.56
2023-08-05T05:32:10.923Z,97899.50
2023-08-05T05:34:38.393Z,97901.69
2023-08-05T05:37:05.602Z,97897.06
2023-08-05T05:39:33.733Z,97888.19
2023-08-05T05:42:00.986Z,97891.28
2023-08-05T05:44:29.108Z,97881.84
2023-08-05T05:46:56.669Z,97882.88
2023-08-05T05:49:23.876Z,97895.25
2023-08-05T05:51:51.269Z,97891.53
2023-08-05T05:54:18.590Z,97887.78
2023-08-05T05:56:45.725Z,97892.91
2023-08-05T05:59:12.862Z,97895.84
2023-08-05T06:01:39.983Z,97896.00
2023-08-05T06:04:10.884Z,97886.22
2023-08-05T06:06:38.410Z,97886.56
2023-08-05T06:09:07.033Z,97880.75
2023-08-05T06:11:34.302Z,97878.31
2023-08-05T06:14:01.510Z,97880.50
2023-08-05T06:16:28.623Z,97874.97
2023-08-05T06:18:55.737Z,97870.19
2023-08-05T06:21:23.885Z,97866.84
2023-08-05T06:23:51.279Z,97870.50
2023-08-05T06:26:19.246Z,97874.00
2023-08-05T06:28:46.383Z,97874.00
2023-08-05T06:31:13.520Z,97886.69
2023-08-05T06:33:40.725Z,97879.09
2023-08-05T06:36:07.894Z,97879.09
2023-08-05T06:38:34.965Z,97883.03
2023-08-05T06:41:02.109Z,97885.22
2023-08-05T06:43:30.006Z,97879.09
2023-08-05T06:45:57.148Z,97882.59
2023-08-05T06:48:24.395Z,97888.72
2023-08-05T06:50:51.637Z,97894.81
2023-08-05T06:53:18.860Z,97883.44
2023-08-05T06:55:45.962Z,97877.91
2023-08-05T06:58:13.287Z,97879.22
2023-08-05T07:00:40.470Z,97871.63
2023-08-05T07:03:07.763Z,97872.22
2023-08-05T07:05:38.543Z,97872.06
2023-08-05T07:08:05.615Z,97867.50
2023-08-05T07:10:32.710Z,97879.00
2023-08-05T07:13:03.121Z,97880.31
2023-08-05T07:15:30.257Z,97887.84
2023-08-05T07:17:57.456Z,97892.97
2023-08-05T07:20:24.671Z,97881.75
2023-08-05T07:22:51.890Z,97882.22
2023-08-05T07:25:19.013Z,97890.13
2023-08-05T07:27:46.119Z,97903.53
2023-08-05T07:30:13.250Z,97908.47
2023-08-05T07:32:41.056Z,97917.13
2023-08-05T07:35:09.091Z,97912.31
2023-08-05T07:37:36.937Z,97919.41
2023-08-05T07:40:06.874Z,97910.78
2023-08-05T07:42:35.503Z,97911.53
2023-08-05T07:45:08.277Z,97924.44
2023-08-05T07:47:40.426Z,97913.56
2023-08-05T07:50:09.131Z,97910.78
2023-08-05T07:52:36.904Z,97906.56
2023-08-05T07:55:05.560Z,97906.72
2023-08-05T07:57:32.841Z,97915.31
2023-08-05T08:00:00.001Z,97908.91
2023-08-05T08:02:27.197Z,97913.13
2023-08-05T08:04:55.481Z,97914.00
2023-08-05T08:07:26.082Z,97909.97
2023-08-05T08:09:53.183Z,97911.59
2023-08-05T08:12:20.380Z,97905.63
2023-08-05T08:14:47.515Z,97896.50
2023-08-05T08:17:14.633Z,97900.06
2023-08-05T08:19:41.811Z,97899.38
2023-08-05T08:22:08.923Z,97899.09
2023-08-05T08:24:36.299Z,97900.88
2023-08-05T08:27:03.838Z,97899.72
2023-08-05T08:29:30.957Z,97887.50
2023-08-05T08:31:58.280Z,97892.94
2023-08-05T08:34:26.727Z,97890.03
2023-08-05T08:36:54.545Z,97896.06
2023-08-05T08:39:22.174Z,97888.22
2023-08-05T08:41:50.534Z,97884.13
2023-08-05T08:44:18.360Z,97888.94
2023-08-05T08:46:46.566Z,97878.31
2023-08-05T08:49:14.594Z,97879.91
2023-08-05T08:51:43.948Z,97877.31
2023-08-05T08:54:14.618Z,97880.97
2023-08-05T08:56:42.194Z,97882.56
2023-08-05T08:59:09.595Z,97881.97
2023-08-05T09:01:39.824Z,97881.41
2023-08-05T09:04:08.074Z,97879.38
2023-08-05T09:06:35.909Z,97874.69
2023-08-05T09:09:03.065Z,97883.59
2023-08-05T09:11:30.155Z,97881.41
2023-08-05T09:13:58.223Z,97882.16
2023-08-05T09:16:27.648Z,97878.19
2023-08-05T09:18:57.450Z,97888.69
2023-08-05T09:21:27.927Z,97887.38
2023-08-05T09:23:56.255Z,97877.34
2023-08-05T09:26:30.731Z,97886.50
2023-08-05T09:29:00.800Z,97893.25
2023-08-05T09:31:28.005Z,97894.69
2023-08-05T09:33:55.350Z,97889.63
2023-08-05T09:36:26.372Z,97887.25
2023-08-05T09:39:07.277Z,97885.25
2023-08-05T09:41:36.539Z,97886.25
2023-08-05T09:44:06.222Z,97876.34
2023-08-05T09:46:42.416Z,97877.34
2023-08-05T09:49:11.852Z,97875.34
2023-08-05T09:51:43.575Z,97872.25
2023-08-05T09:54:14.703Z,97873.72
2023-08-05T09:56:42.064Z,97879.72
2023-08-05T09:59:09.423Z,97880.56
2023-08-05T10:01:37.583Z,97879.44
2023-08-05T10:04:05.240Z,97875.59
2023-08-05T10:06:38.648Z,97858.44
2023-08-05T10:09:08.571Z,97864.50
2023-08-05T10:11:39.474Z,97853.03
2023-08-05T10:14:07.438Z,97853.03
2023-08-05T10:16:34.997Z,97852.28
2023-08-05T10:19:02.230Z,97849.06
2023-08-05T10:21:39.301Z,97846.59
2023-08-05T10:24:06.631Z,97846.13
2023-08-05T10:26:44.657Z,97840.00
2023-08-05T10:29:30.848Z,97838.69
2023-08-05T10:32:11.730Z,97829.06
2023-08-05T10:34:38.905Z,97830.66
2023-08-05T10:37:06.157Z,97832.09
2023-08-05T10:39:42.967Z,97835.91
2023-08-05T10:42:28.405Z,97819.97
2023-08-05T10:44:55.969Z,97827.00
2023-08-05T10:47:24.042Z,97806.09
2023-08-05T10:49:56.703Z,97817.59
2023-08-05T10:52:24.876Z,97810.75
2023-08-05T10:54:53.152Z,97814.81
2023-08-05T10:57:30.802Z,97812.31
2023-08-05T11:00:00.171Z,97807.50
2023-08-05T11:02:27.686Z,97805.94
2023-08-05T11:05:11.647Z,97814.41
2023-08-05T11:07:40.122Z,97807.06
2023-08-05T11:10:07.989Z,97810.59
2023-08-05T11:12:35.183Z,97801.53
2023-08-05T11:15:02.492Z,97794.81
2023-08-05T11:17:32.503Z,97789.25
2023-08-05T11:20:02.785Z,97790.56
2023-08-05T11:22:33.697Z,97786.06
2023-08-05T11:25:03.043Z,97779.31
2023-08-05T11:27:40.195Z,97777.84
2023-08-05T11:30:25.908Z,97775.09
2023-08-05T11:32:54.211Z,97780.63
2023-08-05T11:35:21.961Z,97780.97
2023-08-05T11:37:49.345Z,97778.03
2023-08-05T11:40:16.893Z,97780.25
2023-08-05T11:42:44.553Z,97762.41
2023-08-05T11:45:13.462Z,97764.88
2023-08-05T11:47:41.479Z,97762.34
2023-08-05T11:50:10.358Z,97763.22
2023-08-05T11:52:37.951Z,97763.38
2023-08-05T11:55:06.873Z,97755.03
2023-08-05T11:57:34.455Z,97756.63
2023-08-05T12:00:10.886Z,97762.31
2023-08-05T12:02:38.402Z,97747.31
2023-08-05T12:05:10.451Z,97749.63
2023-08-05T12:07:42.539Z,97749.16
2023-08-05T12:10:11.192Z,97743.28
2023-08-05T12:12:39.000Z,97749.69
2023-08-05T12:15:13.119Z,97756.25
2023-08-05T12:17:45.557Z,97751.13
2023-08-05T12:20:16.587Z,97745.22
2023-08-05T12:22:43.966Z,97739.34
2023-08-05T12:25:11.080Z,97741.25
2023-08-05T12:27:38.227Z,97731.25
2023-08-05T12:30:09.609Z,97735.63
2023-08-05T12:32:36.993Z,97727.59
2023-08-05T12:35:07.231Z,97740.75
2023-08-05T12:37:37.750Z,97743.53
2023-08-05T12:40:05.963Z,97742.81
2023-08-05T12:42:33.675Z,97737.53
2023-08-05T12:45:06.110Z,97728.13
2023-08-05T12:47:35.842Z,97731.06
2023-08-05T12:50:04.214Z,97731.06
2023-08-05T12:52:31.386Z,97731.19
2023-08-05T12:54:58.496Z,97729.84
2023-08-05T12:57:25.875Z,97724.31
2023-08-05T12:59:53.233Z,97727.06
2023-08-05T13:02:27.281Z,97718.03
2023-08-05T13:05:02.200Z,97716.81
2023-08-05T13:07:29.425Z,97721.06
2023-08-05T13:09:56.526Z,97709.22
2023-08-05T13:12:23.654Z,97708.75
2023-08-05T13:14:50.756Z,97703.31
2023-08-05T13:17:17.909Z,97705.50
2023-08-05T13:19:45.213Z,97706.22
2023-08-05T13:22:12.333Z,97700.94
2023-08-05T13:24:39.618Z,97696.22
2023-08-05T13:27:06.773Z,97693.00
2023-08-05T13:29:34.012Z,97693.97
2023-08-05T13:32:01.119Z,97694.97
2023-08-05T13:34:28.345Z,97691.81
2023-08-05T13:36:55.569Z,97680.69
2023-08-05T13:39:24.157Z,97685.69
2023-08-05T13:41:58.757Z,97684.34
2023-08-05T13:44:29.336Z,97686.75
2023-08-05T13:46:56.527Z,97691.25
2023-08-05T13:49:23.716Z,97675.91
2023-08-05T13:51:52.482Z,97682.06
2023-08-05T13:54:20.282Z,97681.34
2023-08-05T13:56:47.404Z,97678.31
2023-08-05T13:59:14.487Z,97680.22
2023-08-05T14:01:43.655Z,97676.13
2023-08-05T14:04:10.834Z,97679.63
2023-08-05T14:06:38.130Z,97675.41
2023-08-05T14:09:08.884Z,97670.31
2023-08-05T14:11:36.271Z,97662.56
2023-08-05T14:14:03.548Z,97665.09
2023-08-05T14:16:30.773Z,97657.94
2023-08-05T14:18:58.027Z,97658.31
2023-08-05T14:21:25.283Z,97653.59
2023-08-05T14:23:52.422Z,97652.16
2023-08-05T14:26:19.555Z,97643.94
2023-08-05T14:28:47.414Z,97642.47
2023-08-05T14:31:14.617Z,97642.47
2023-08-05T14:33:41.797Z,97637.75
2023-08-05T14:36:13.125Z,97643.94
2023-08-05T14:38:40.243Z,97637.41
2023-08-05T14:41:14.338Z,97636.69
2023-08-05T14:43:41.464Z,97634.03
2023-08-05T14:46:08.990Z,97638.25
2023-08-05T14:48:36.513Z,97638.25
2023-08-05T14:51:04.185Z,97638.38
2023-08-05T14:53:31.312Z,97630.91
2023-08-05T14:55:59.029Z,97639.25
2023-08-05T14:58:26.511Z,97630.75
2023-08-05T15:00:54.013Z,97631.75
2023-08-05T15:03:21.733Z,97622.91
2023-08-05T15:05:55.535Z,97630.53
2023-08-05T15:08:25.435Z,97617.63
2023-08-05T15:11:02.116Z,97616.91
2023-08-05T15:13:29.333Z,97612.53
2023-08-05T15:15:56.644Z,97612.06
2023-08-05T15:18:23.823Z,97613.41
2023-08-05T15:20:51.058Z,97612.53
2023-08-05T15:23:30.076Z,97601.41
2023-08-05T15:25:59.055Z,97600.06
2023-08-05T15:28:26.232Z,97597.28
2023-08-05T15:30:53.337Z,97599.97
2023-08-05T15:33:20.649Z,97597.91
2023-08-05T15:35:47.754Z,97591.63
2023-08-05T15:38:15.014Z,97590.78
2023-08-05T15:40:45.441Z,97592.94
2023-08-05T15:43:14.381Z,97593.56
2023-08-05T15:45:54.464Z,97597.06
2023-08-05T15:48:21.617Z,97592.72
2023-08-05T15:50:48.763Z,97577.94
2023-08-05T15:53:15.874Z,97580.50
2023-08-05T15:55:43.198Z,97576.25
2023-08-05T15:58:10.309Z,97572.03
2023-08-05T16:00:37.662Z,97567.78
2023-08-05T16:03:04.873Z,97562.81
2023-08-05T16:05:32.015Z,97563.44
2023-08-05T16:07:59.119Z,97566.81
2023-08-05T16:10:26.202Z,97563.31
2023-08-05T16:12:53.295Z,97565.81
2023-08-05T16:15:23.247Z,97559.66
2023-08-05T16:17:50.733Z,97565.38
2023-08-05T16:20:17.997Z,97561.25
2023-08-05T16:22:45.217Z,97556.16
2023-08-05T16:25:13.318Z,97559.66
2023-08-05T16:27:42.070Z,97547.25
2023-08-05T16:30:09.623Z,97555.69
2023-08-05T16:32:39.101Z,97551.31
2023-08-05T16:35:06.595Z,97547.72
2023-08-05T16:37:33.736Z,97551.31
2023-08-05T16:40:00.866Z,97536.13
2023-08-05T16:42:27.960Z,97552.81
2023-08-05T16:44:55.095Z,97542.03
2023-08-05T16:47:22.235Z,97538.75
2023-08-05T16:49:49.507Z,97541.25
2023-08-05T16:52:16.741Z,97535.59
2023-08-05T16:54:45.108Z,97539.56
2023-08-05T16:57:12.285Z,97531.69
2023-08-05T16:59:39.426Z,97532.91
2023-08-05T17:02:06.787Z,97533.63
2023-08-05T17:04:34.725Z,97528.81
2023-08-05T17:07:02.044Z,97527.06
2023-08-05T17:09:29.201Z,97512.31
2023-08-05T17:11:56.598Z,97514.00
2023-08-05T17:14:23.760Z,97516.78
2023-08-05T17:16:50.983Z,97520.75
2023-08-05T17:19:18.147Z,97534.00
2023-08-05T17:21:45.246Z,97517.94
2023-08-05T17:24:12.614Z,97513.25
2023-08-05T17:26:39.716Z,97508.88
2023-08-05T17:29:06.931Z,97513.19
2023-08-05T17:31:34.250Z,97508.25
2023-08-05T17:34:01.377Z,97508.25
2023-08-05T17:36:28.503Z,97511.75
2023-08-05T17:38:55.722Z,97517.03
2023-08-05T17:41:23.003Z,97518.63
2023-08-05T17:43:50.150Z,97521.28
2023-08-05T17:46:17.313Z,97523.06
2023-08-05T17:48:44.475Z,97528.34
2023-08-05T17:51:11.658Z,97530.41
2023-08-05T17:53:38.763Z,97526.63
2023-08-05T17:56:05.888Z,97529.22
2023-08-05T17:58:32.998Z,97533.91
2023-08-05T18:01:00.208Z,97536.28
2023-08-05T18:03:27.426Z,97540.84
2023-08-05T18:06:04.403Z,97530.78
2023-08-05T18:08:39.183Z,97530.94
2023-08-05T18:11:06.299Z,97532.84
2023-08-05T18:13:33.546Z,97532.72
2023-08-05T18:16:00.838Z,97537.06
2023-08-05T18:18:28.025Z,97530.94
2023-08-05T18:20:55.173Z,97533.44
2023-08-05T18:23:22.316Z,97540.19
2023-08-05T18:25:49.466Z,97539.16
2023-08-05T18:28:19.400Z,97538.59
2023-08-05T18:30:46.680Z,97533.13
2023-08-05T18:33:15.039Z,97531.06
2023-08-05T18:35:47.997Z,97536.78
2023-08-05T18:38:15.968Z,97527.47
2023-08-05T18:40:43.342Z,97534.06
2023-08-05T18:43:10.639Z,97529.84
2023-08-05T18:45:37.941Z,97529.69
2023-08-05T18:48:05.421Z,97525.47
2023-08-05T18:50:32.542Z,97521.25
2023-08-05T18:52:59.735Z,97531.16
2023-08-05T18:55:27.703Z,97523.72
2023-08-05T18:57:54.787Z,97521.25
2023-08-05T19:00:24.634Z,97513.41
2023-08-05T19:02:51.777Z,97524.03
2023-08-05T19:05:19.699Z,97521.13
2023-08-05T19:07:46.866Z,97525.34
2023-08-05T19:10:14.686Z,97528.84
2023-08-05T19:12:42.053Z,97519.81
2023-08-05T19:15:09.604Z,97509.91
2023-08-05T19:17:37.011Z,97511.66
2023-08-05T19:20:05.300Z,97508.44
2023-08-05T19:22:32.486Z,97514.00
2023-08-05T19:25:00.632Z,97499.53
2023-08-05T19:27:34.413Z,97506.97
2023-08-05T19:30:08.609Z,97510.06
2023-08-05T19:32:35.896Z,97502.94
2023-08-05T19:35:05.755Z,97495.22
2023-08-05T19:37:33.496Z,97493.88
2023-08-05T19:40:00.683Z,97493.75
2023-08-05T19:42:27.870Z,97498.31
2023-08-05T19:44:54.951Z,97497.00
2023-08-05T19:47:22.089Z,97504.00
2023-08-05T19:49:50.311Z,97495.06
2023-08-05T19:52:17.499Z,97485.44
2023-08-05T19:54:44.586Z,97490.84
2023-08-05T19:57:12.382Z,97485.44
2023-08-05T19:59:39.502Z,97481.94
2023-08-05T20:02:06.786Z,97482.53
2023-08-05T20:04:33.935Z,97480.94
2023-08-05T20:07:01.087Z,97480.09
2023-08-05T20:09:28.315Z,97482.72
2023-08-05T20:11:55.573Z,97475.13
2023-08-05T20:14:22.961Z,97472.38
2023-08-05T20:16:50.703Z,97470.19
2023-08-05T20:19:18.029Z,97463.75
2023-08-05T20:21:45.515Z,97460.28
2023-08-05T20:24:14.127Z,97464.34
2023-08-05T20:26:42.209Z,97458.56
2023-08-05T20:29:09.366Z,97455.66
2023-08-05T20:31:36.534Z,97454.78
2023-08-05T20:34:05.844Z,97454.63
2023-08-05T20:36:33.337Z,97449.56
2023-08-05T20:39:00.537Z,97447.53
2023-08-05T20:41:29.609Z,97444.75
2023-08-05T20:43:56.756Z,97441.97
2023-08-05T20:46:23.912Z,97448.97
2023-08-05T20:48:51.105Z,97446.19
2023-08-05T20:51:19.032Z,97441.81
2023-08-05T20:53:46.239Z,97440.81
2023-08-05T20:56:14.647Z,97444.16
2023-08-05T20:58:41.791Z,97444.16
2023-08-05T21:01:13.106Z,97446.06
2023-08-05T21:03:40.262Z,97441.25
2023-08-05T21:06:07.643Z,97436.44
2023-08-05T21:08:34.946Z,97430.16
2023-08-05T21:11:09.315Z,97424.63
2023-08-05T21:13:37.634Z,97416.78
2023-08-05T21:16:05.507Z,97423.03
2023-08-05T21:18:33.896Z,97421.59
2023-08-05T21:21:04.478Z,97410.38
2023-08-05T21:23:31.654Z,97412.28
2023-08-05T21:25:58.933Z,97410.69
2023-08-05T21:28:26.079Z,97411.28
2023-08-05T21:31:00.819Z,97408.50
2023-08-05T21:33:28.802Z,97402.81
2023-08-05T21:35:56.684Z,97392.50
2023-08-05T21:38:23.814Z,97388.47
2023-08-05T21:40:51.467Z,97376.81
2023-08-05T21:43:18.778Z,97373.94
2023-08-05T21:45:57.385Z,97389.34
2023-08-05T21:48:25.360Z,97386.44
2023-08-05T21:50:52.710Z,97393.59
2023-08-05T21:53:20.540Z,97382.94
2023-08-05T21:55:47.701Z,97382.09
2023-08-05T21:58:15.009Z,97373.81
2023-08-05T22:00:42.145Z,97369.75
2023-08-05T22:03:11.506Z,97368.13
2023-08-05T22:05:38.682Z,97351.69
2023-08-05T22:08:06.086Z,97350.38
2023-08-05T22:10:33.244Z,97346.59
2023-08-05T22:13:00.356Z,97343.69
2023-08-05T22:15:29.063Z,97339.47
2023-08-05T22:17:56.419Z,97341.50
2023-08-05T22:20:23.657Z,97342.81
2023-08-05T22:22:50.997Z,97345.44
2023-08-05T22:25:18.162Z,97334.97
2023-08-05T22:27:45.306Z,97339.50
2023-08-05T22:30:12.493Z,97323.34
2023-08-05T22:32:39.667Z,97322.19
2023-08-05T22:35:07.027Z,97324.81
2023-08-05T22:37:34.178Z,97320.13
2023-08-05T22:40:02.056Z,97309.81
2023-08-05T22:42:29.411Z,97310.25
2023-08-05T22:44:56.545Z,97316.25
2023-08-05T22:47:23.885Z,97312.00
2023-08-05T22:49:51.101Z,97316.25
2023-08-05T22:52:18.296Z,97324.53
2023-08-05T22:54:45.379Z,97320.88
2023-08-05T22:57:12.607Z,97318.44
2023-08-05T22:59:39.704Z,97313.31
2023-08-05T23:02:07.257Z,97312.59
2023-08-05T23:04:34.444Z,97323.50
2023-08-05T23:07:01.555Z,97314.91
2023-08-05T23:09:28.638Z,97319.00
2023-08-05T23:11:56.072Z,97318.84
2023-08-05T23:14:23.365Z,97313.63
2023-08-05T23:16:50.582Z,97324.84
2023-08-05T23:19:17.760Z,97306.22
2023-08-05T23:21:44.943Z,97308.97
2023-08-05T23:24:12.228Z,97291.81
2023-08-05T23:26:39.554Z,97290.34
2023-08-05T23:29:06.751Z,97283.38
2023-08-05T23:31:34.251Z,97276.22
2023-08-05T23:34:01.526Z,97275.22
2023-08-05T23:36:28.669Z,97268.69
2023-08-05T23:38:55.916Z,97271.16
2023-08-05T23:41:23.068Z,97269.13
2023-08-05T23:43:50.268Z,97255.59
2023-08-05T23:46:17.430Z,97251.97
2023-08-05T23:48:44.624Z,97254.72
2023-08-05T23:51:11.777Z,97243.56
2023-08-05T23:53:38.875Z,97240.34
2023-08-05T23:56:06.306Z,97235.41
2023-08-05T23:58:33.585Z,97221.16
